RMI weather

Federico Fellini International Airport
Rimini, Emilia-Romagna, Italy

Public forecast

Using degrees Celsius for public forecast. Weather courtesy of forecast.io.

Current aviation weather report (METAR) for Federico Fellini International Airport

Retrieved 2020/01/22 22:20 UTC (12 minutes ago):

LIPR 222220Z AUTO 20004KT 7000 NCD 01/M00 Q1030

Aviation forecast (TAF) for Federico Fellini International Airport

Forecast is more than 12 hours old.

Retrieved 2016/08/23 03:00 UTC (3 years ago):

TAF LIPR 230200Z 2303/2312 04007KT CAVOK BECMG 2308/2310 02010KT